createdAt,value
2023-05-24T00:00:44.169Z,8.87
2023-05-24T00:03:11.538Z,8.78
2023-05-24T00:05:38.804Z,8.76
2023-05-24T00:08:06.031Z,8.74
2023-05-24T00:10:34.600Z,8.69
2023-05-24T00:13:01.819Z,8.69
2023-05-24T00:15:29.042Z,8.62
2023-05-24T00:17:56.301Z,8.63
2023-05-24T00:20:23.548Z,8.59
2023-05-24T00:22:50.729Z,8.61
2023-05-24T00:25:17.976Z,8.58
2023-05-24T00:27:46.725Z,8.50
2023-05-24T00:30:14.104Z,8.50
2023-05-24T00:32:41.365Z,8.53
2023-05-24T00:35:08.984Z,8.52
2023-05-24T00:37:36.402Z,8.55
2023-05-24T00:40:04.217Z,8.56
2023-05-24T00:42:31.466Z,8.54
2023-05-24T00:45:00.048Z,8.56
2023-05-24T00:47:27.607Z,8.56
2023-05-24T00:49:55.084Z,8.52
2023-05-24T00:52:22.864Z,8.49
2023-05-24T00:54:50.190Z,8.50
2023-05-24T00:57:17.460Z,8.52
2023-05-24T00:59:45.402Z,8.48
2023-05-24T01:02:14.056Z,8.52
2023-05-24T01:04:41.250Z,8.54
2023-05-24T01:07:18.581Z,8.59
2023-05-24T01:09:55.435Z,8.52
2023-05-24T01:12:31.044Z,8.52
2023-05-24T01:15:07.054Z,8.56
2023-05-24T01:17:45.994Z,8.51
2023-05-24T01:20:16.684Z,8.46
2023-05-24T01:23:03.956Z,8.45
2023-05-24T01:25:53.213Z,8.47
2023-05-24T01:28:23.302Z,8.44
2023-05-24T01:30:54.534Z,8.46
2023-05-24T01:33:24.459Z,8.50
2023-05-24T01:35:51.689Z,8.54
2023-05-24T01:38:18.910Z,8.53
2023-05-24T01:40:52.604Z,8.54
2023-05-24T01:43:31.596Z,8.40
2023-05-24T01:46:06.604Z,8.39
2023-05-24T01:48:48.329Z,8.39
2023-05-24T01:51:19.465Z,8.24
2023-05-24T01:53:50.712Z,8.26
2023-05-24T01:56:19.462Z,8.18
2023-05-24T01:58:50.765Z,8.18
2023-05-24T02:01:18.285Z,8.14
2023-05-24T02:03:46.073Z,8.13
2023-05-24T02:06:13.878Z,8.11
2023-05-24T02:08:41.099Z,8.08
2023-05-24T02:11:08.335Z,7.99
2023-05-24T02:13:35.528Z,7.84
2023-05-24T02:16:04.617Z,7.80
2023-05-24T02:18:31.854Z,7.72
2023-05-24T02:20:59.067Z,7.73
2023-05-24T02:23:26.389Z,7.71
2023-05-24T02:25:53.957Z,7.63
2023-05-24T02:28:21.197Z,7.60
2023-05-24T02:30:48.480Z,7.54
2023-05-24T02:33:17.159Z,7.53
2023-05-24T02:35:44.474Z,7.54
2023-05-24T02:38:11.697Z,7.46
2023-05-24T02:40:39.354Z,7.42
2023-05-24T02:43:06.579Z,7.45
2023-05-24T02:45:33.814Z,7.51
2023-05-24T02:48:01.041Z,7.47
2023-05-24T02:50:29.786Z,7.49
2023-05-24T02:52:57.115Z,7.52
2023-05-24T02:55:25.026Z,7.41
2023-05-24T02:57:52.299Z,7.42
2023-05-24T03:00:20.024Z,7.42
2023-05-24T03:02:47.612Z,7.39
2023-05-24T03:05:15.326Z,7.35
2023-05-24T03:07:43.883Z,7.24
2023-05-24T03:10:12.571Z,7.24
2023-05-24T03:12:41.746Z,7.27
2023-05-24T03:15:10.116Z,7.17
2023-05-24T03:17:37.352Z,7.12
2023-05-24T03:20:06.117Z,7.06
2023-05-24T03:22:33.671Z,7.05
2023-05-24T03:25:02.372Z,7.06
2023-05-24T03:27:29.649Z,7.09
2023-05-24T03:29:56.856Z,7.02
2023-05-24T03:32:27.643Z,7.02
2023-05-24T03:34:54.881Z,6.97
2023-05-24T03:37:22.650Z,6.89
2023-05-24T03:39:49.995Z,6.79
2023-05-24T03:42:47.878Z,6.73
2023-05-24T03:45:21.503Z,6.73
2023-05-24T03:47:54.537Z,6.66
2023-05-24T03:50:21.832Z,6.58
2023-05-24T03:52:49.070Z,6.47
2023-05-24T03:55:16.411Z,6.45
2023-05-24T03:57:43.619Z,6.34
2023-05-24T04:00:13.364Z,6.31
2023-05-24T04:02:47.374Z,6.22
2023-05-24T04:05:14.839Z,6.18
2023-05-24T04:07:42.197Z,6.19
2023-05-24T04:10:09.881Z,6.22
2023-05-24T04:12:37.154Z,6.33
2023-05-24T04:15:08.384Z,6.45
2023-05-24T04:17:37.155Z,6.47
2023-05-24T04:20:06.600Z,6.46
2023-05-24T04:22:33.826Z,6.55
2023-05-24T04:25:01.626Z,6.62
2023-05-24T04:27:28.850Z,6.86
2023-05-24T04:29:56.181Z,6.93
2023-05-24T04:32:23.465Z,7.06
2023-05-24T04:34:52.103Z,7.27
2023-05-24T04:37:19.370Z,7.41
2023-05-24T04:39:48.058Z,7.48
2023-05-24T04:42:15.482Z,7.55
2023-05-24T04:44:42.768Z,7.57
2023-05-24T04:47:10.001Z,7.65
2023-05-24T04:49:37.184Z,7.78
2023-05-24T04:52:06.846Z,7.80
2023-05-24T04:54:34.246Z,7.93
2023-05-24T04:57:01.470Z,7.96
2023-05-24T04:59:28.699Z,7.89
2023-05-24T05:01:56.228Z,7.94
2023-05-24T05:04:23.546Z,8.05
2023-05-24T05:06:50.851Z,7.97
2023-05-24T05:09:19.487Z,8.19
2023-05-24T05:11:47.065Z,8.18
2023-05-24T05:14:14.257Z,8.19
2023-05-24T05:16:42.285Z,8.38
2023-05-24T05:19:09.525Z,8.23
2023-05-24T05:21:36.772Z,8.37
2023-05-24T05:24:04.060Z,8.37
2023-05-24T05:26:32.662Z,8.58
2023-05-24T05:28:59.857Z,8.59
2023-05-24T05:31:27.115Z,8.51
2023-05-24T05:33:54.353Z,8.49
2023-05-24T05:36:21.559Z,8.75
2023-05-24T05:38:48.786Z,8.85
2023-05-24T05:41:16.054Z,9.34
2023-05-24T05:43:44.644Z,9.08
2023-05-24T05:46:11.894Z,8.51
2023-05-24T05:48:39.164Z,8.98
2023-05-24T05:51:06.504Z,8.98
2023-05-24T05:53:33.879Z,9.02
2023-05-24T05:56:01.084Z,9.14
2023-05-24T05:58:28.246Z,9.04
2023-05-24T06:00:56.811Z,9.06
2023-05-24T06:03:24.184Z,9.46
2023-05-24T06:05:51.542Z,9.70
2023-05-24T06:08:18.727Z,9.87
2023-05-24T06:10:45.981Z,9.76
2023-05-24T06:13:13.579Z,10.12
2023-05-24T06:15:40.873Z,10.15
2023-05-24T06:18:09.448Z,9.87
2023-05-24T06:20:36.889Z,10.11
2023-05-24T06:23:04.397Z,9.94
2023-05-24T06:25:31.586Z,10.26
2023-05-24T06:27:58.813Z,10.25
2023-05-24T06:30:26.151Z,10.07
2023-05-24T06:32:53.404Z,9.86
2023-05-24T06:35:22.300Z,9.63
2023-05-24T06:37:49.567Z,9.38
2023-05-24T06:40:16.888Z,9.35
2023-05-24T06:42:44.088Z,9.31
2023-05-24T06:45:11.816Z,9.60
2023-05-24T06:47:39.661Z,10.03
2023-05-24T06:50:08.425Z,10.26
2023-05-24T06:52:37.014Z,10.92
2023-05-24T06:55:04.872Z,10.75
2023-05-24T06:57:32.105Z,10.50
2023-05-24T06:59:59.302Z,10.26
2023-05-24T07:02:26.707Z,10.32
2023-05-24T07:04:54.420Z,10.28
2023-05-24T07:07:21.765Z,10.14
2023-05-24T07:09:50.363Z,10.13
2023-05-24T07:12:17.718Z,10.09
2023-05-24T07:14:44.965Z,10.28
2023-05-24T07:17:12.359Z,10.39
2023-05-24T07:19:39.667Z,10.50
2023-05-24T07:22:07.111Z,11.12
2023-05-24T07:24:34.331Z,10.91
2023-05-24T07:27:03.058Z,10.65
2023-05-24T07:29:30.284Z,10.66
2023-05-24T07:31:58.021Z,10.39
2023-05-24T07:34:25.363Z,10.02
2023-05-24T07:36:52.557Z,10.00
2023-05-24T07:39:19.779Z,10.20
2023-05-24T07:41:47.027Z,10.17
2023-05-24T07:44:15.632Z,10.34
2023-05-24T07:46:43.010Z,10.58
2023-05-24T07:49:10.263Z,10.57
2023-05-24T07:51:37.605Z,10.21
2023-05-24T07:54:05.399Z,10.20
2023-05-24T07:56:32.738Z,10.14
2023-05-24T07:59:00.261Z,10.46
2023-05-24T08:01:28.888Z,10.53
2023-05-24T08:03:56.610Z,10.45
2023-05-24T08:06:24.088Z,10.51
2023-05-24T08:08:51.322Z,10.36
2023-05-24T08:11:18.610Z,10.80
2023-05-24T08:13:45.793Z,10.45
2023-05-24T08:16:13.091Z,10.60
2023-05-24T08:18:41.737Z,10.41
2023-05-24T08:21:08.985Z,10.83
2023-05-24T08:23:36.192Z,10.70
2023-05-24T08:26:03.774Z,10.84
2023-05-24T08:28:31.071Z,10.82
2023-05-24T08:30:58.368Z,10.40
2023-05-24T08:33:25.601Z,11.11
2023-05-24T08:35:54.256Z,11.99
2023-05-24T08:38:21.545Z,12.91
2023-05-24T08:40:48.776Z,13.29
2023-05-24T08:43:16.814Z,13.06
2023-05-24T08:45:45.503Z,13.29
2023-05-24T08:48:14.401Z,13.41
2023-05-24T08:50:42.934Z,12.54
2023-05-24T08:53:12.692Z,13.31
2023-05-24T08:55:40.948Z,13.10
2023-05-24T08:58:09.528Z,12.71
2023-05-24T09:00:36.810Z,12.74
2023-05-24T09:03:05.159Z,12.51
2023-05-24T09:05:33.440Z,13.07
2023-05-24T09:08:02.037Z,12.69
2023-05-24T09:10:44.968Z,12.67
2023-05-24T09:13:20.273Z,12.32
2023-05-24T09:15:47.619Z,12.10
2023-05-24T09:18:14.934Z,12.12
2023-05-24T09:20:42.387Z,12.13
2023-05-24T09:23:11.315Z,11.89
2023-05-24T09:25:43.789Z,11.84
2023-05-24T09:28:13.550Z,11.77
2023-05-24T09:30:43.464Z,12.03
2023-05-24T09:33:11.205Z,12.45
2023-05-24T09:35:42.473Z,12.79
2023-05-24T09:38:17.109Z,12.82
2023-05-24T09:40:46.201Z,12.87
2023-05-24T09:43:13.466Z,12.67
2023-05-24T09:45:44.567Z,13.16
2023-05-24T09:48:12.808Z,13.54
2023-05-24T09:50:40.254Z,13.88
2023-05-24T09:53:07.948Z,14.66
2023-05-24T09:55:36.689Z,15.43
2023-05-24T09:58:06.546Z,14.85
2023-05-24T10:00:35.322Z,14.92
2023-05-24T10:03:03.943Z,14.98
2023-05-24T10:05:31.379Z,14.21
2023-05-24T10:07:59.032Z,14.23
2023-05-24T10:10:28.122Z,14.76
2023-05-24T10:12:56.293Z,14.60
2023-05-24T10:15:25.648Z,15.54
2023-05-24T10:17:53.457Z,16.03
2023-05-24T10:20:20.861Z,15.71
2023-05-24T10:22:51.784Z,15.06
2023-05-24T10:25:21.854Z,14.19
2023-05-24T10:27:51.893Z,14.12
2023-05-24T10:30:29.402Z,14.22
2023-05-24T10:32:57.397Z,14.30
2023-05-24T10:35:25.466Z,13.97
2023-05-24T10:37:53.566Z,14.53
2023-05-24T10:40:22.521Z,13.60
2023-05-24T10:42:50.195Z,13.87
2023-05-24T10:45:32.504Z,14.90
2023-05-24T10:48:02.143Z,15.45
2023-05-24T10:50:29.415Z,14.65
2023-05-24T10:53:11.826Z,13.89
2023-05-24T10:55:52.779Z,14.57
2023-05-24T10:58:20.115Z,15.56
2023-05-24T11:00:51.836Z,15.50
2023-05-24T11:03:19.485Z,15.50
2023-05-24T11:05:52.099Z,16.18
2023-05-24T11:08:29.704Z,16.62
2023-05-24T11:11:28.063Z,17.19
2023-05-24T11:13:57.846Z,15.30
2023-05-24T11:16:38.552Z,15.08
2023-05-24T11:19:14.708Z,15.58
2023-05-24T11:21:44.416Z,15.26
2023-05-24T11:24:11.884Z,16.35
2023-05-24T11:26:39.494Z,15.81
2023-05-24T11:29:07.736Z,15.45
2023-05-24T11:31:39.693Z,14.71
2023-05-24T11:34:10.346Z,14.89
2023-05-24T11:36:37.586Z,15.13
2023-05-24T11:39:07.737Z,15.66
2023-05-24T11:41:38.971Z,15.79
2023-05-24T11:44:07.726Z,15.88
2023-05-24T11:46:36.881Z,15.85
2023-05-24T11:49:04.100Z,15.37
2023-05-24T11:51:34.304Z,15.86
2023-05-24T11:54:01.547Z,15.73
2023-05-24T11:56:33.192Z,15.66
2023-05-24T11:59:09.792Z,15.73
2023-05-24T12:01:38.457Z,15.06
2023-05-24T12:04:06.699Z,14.74
2023-05-24T12:06:35.372Z,15.28
2023-05-24T12:09:02.662Z,15.25
2023-05-24T12:11:29.872Z,15.27
2023-05-24T12:13:58.000Z,16.16
2023-05-24T12:16:25.404Z,15.71
2023-05-24T12:19:05.218Z,16.09
2023-05-24T12:21:41.067Z,16.36
2023-05-24T12:24:09.517Z,14.89
2023-05-24T12:26:37.639Z,14.75
2023-05-24T12:29:04.862Z,14.88
2023-05-24T12:31:32.130Z,15.62
2023-05-24T12:34:00.770Z,16.04
2023-05-24T12:36:28.755Z,15.96
2023-05-24T12:38:57.137Z,16.48
2023-05-24T12:41:24.596Z,16.45
2023-05-24T12:43:52.248Z,16.58
2023-05-24T12:46:19.426Z,17.33
2023-05-24T12:48:46.738Z,17.79
2023-05-24T12:51:15.263Z,17.16
2023-05-24T12:53:42.469Z,18.04
2023-05-24T12:56:09.733Z,17.12
2023-05-24T12:58:36.949Z,16.52
2023-05-24T13:01:04.246Z,17.07
2023-05-24T13:03:31.472Z,16.57
2023-05-24T13:05:58.720Z,16.04
2023-05-24T13:08:27.369Z,16.27
2023-05-24T13:10:54.593Z,16.60
2023-05-24T13:13:21.928Z,17.05
2023-05-24T13:15:49.165Z,17.25
2023-05-24T13:18:16.414Z,17.97
2023-05-24T13:20:43.914Z,17.76
2023-05-24T13:23:11.522Z,17.92
2023-05-24T13:25:40.082Z,17.71
2023-05-24T13:28:07.293Z,17.48
2023-05-24T13:30:34.496Z,18.45
2023-05-24T13:33:01.761Z,18.14
2023-05-24T13:35:29.705Z,18.04
2023-05-24T13:37:56.948Z,17.66
2023-05-24T13:40:24.200Z,16.89
2023-05-24T13:42:52.864Z,17.34
2023-05-24T13:45:20.079Z,16.80
2023-05-24T13:47:47.398Z,17.00
2023-05-24T13:50:15.015Z,17.44
2023-05-24T13:52:42.262Z,17.84
2023-05-24T13:55:09.901Z,17.63
2023-05-24T13:57:49.887Z,17.41
2023-05-24T14:00:21.112Z,17.59
2023-05-24T14:02:48.724Z,17.07
2023-05-24T14:05:25.941Z,16.86
2023-05-24T14:07:55.014Z,16.87
2023-05-24T14:10:22.323Z,16.70
2023-05-24T14:13:03.430Z,16.93
2023-05-24T14:15:38.330Z,16.97
2023-05-24T14:18:06.211Z,17.22
2023-05-24T14:20:34.136Z,17.21
2023-05-24T14:23:01.373Z,16.77
2023-05-24T14:25:28.614Z,16.80
2023-05-24T14:27:55.857Z,16.87
2023-05-24T14:30:23.151Z,16.97
2023-05-24T14:32:51.765Z,16.99
2023-05-24T14:35:18.996Z,17.40
2023-05-24T14:37:46.240Z,17.35
2023-05-24T14:40:14.066Z,16.97
2023-05-24T14:42:41.547Z,17.03
2023-05-24T14:45:10.153Z,17.09
2023-05-24T14:47:37.374Z,16.80
2023-05-24T14:50:07.377Z,17.01
2023-05-24T14:52:34.571Z,16.65
2023-05-24T14:55:03.106Z,16.87
2023-05-24T14:57:30.325Z,16.77
2023-05-24T14:59:57.567Z,17.08
2023-05-24T15:02:24.900Z,17.21
2023-05-24T15:04:52.138Z,17.47
2023-05-24T15:07:21.616Z,17.67
2023-05-24T15:09:48.846Z,17.57
2023-05-24T15:12:16.043Z,17.62
2023-05-24T15:14:43.401Z,17.66
2023-05-24T15:17:11.806Z,17.23
2023-05-24T15:19:39.057Z,17.30
2023-05-24T15:22:06.751Z,16.64
2023-05-24T15:24:37.502Z,16.96
2023-05-24T15:27:04.940Z,16.57
2023-05-24T15:29:32.111Z,16.92
2023-05-24T15:31:59.370Z,16.80
2023-05-24T15:34:29.301Z,16.99
2023-05-24T15:36:56.492Z,17.14
2023-05-24T15:39:23.722Z,17.07
2023-05-24T15:41:52.292Z,17.09
2023-05-24T15:44:19.559Z,16.46
2023-05-24T15:46:46.911Z,16.66
2023-05-24T15:49:14.146Z,16.29
2023-05-24T15:54:11.526Z,16.95
2023-05-24T15:56:38.750Z,16.53
2023-05-24T15:59:07.314Z,16.26
2023-05-24T16:01:34.686Z,16.21
2023-05-24T16:04:02.001Z,16.51
2023-05-24T16:06:29.324Z,16.45
2023-05-24T16:08:56.560Z,16.23
2023-05-24T16:11:23.891Z,16.09
2023-05-24T16:13:51.097Z,16.32
2023-05-24T16:16:19.770Z,16.51
2023-05-24T16:18:46.976Z,16.84
2023-05-24T16:21:14.188Z,17.07
2023-05-24T16:23:41.389Z,16.47
2023-05-24T16:26:08.683Z,16.70
2023-05-24T16:28:35.883Z,16.97
2023-05-24T16:31:03.177Z,16.62
2023-05-24T16:33:31.864Z,16.41
2023-05-24T16:36:01.202Z,16.10
2023-05-24T16:38:29.897Z,16.11
2023-05-24T16:40:57.106Z,16.33
2023-05-24T16:43:24.332Z,15.84
2023-05-24T16:45:51.848Z,16.03
2023-05-24T16:48:19.368Z,16.12
2023-05-24T16:50:48.149Z,16.35
2023-05-24T16:53:15.464Z,16.22
2023-05-24T16:55:42.674Z,16.31
2023-05-24T16:58:09.912Z,16.31
2023-05-24T17:00:37.147Z,16.21
2023-05-24T17:03:04.437Z,16.30
2023-05-24T17:05:31.695Z,16.11
2023-05-24T17:08:00.274Z,16.08
2023-05-24T17:10:27.479Z,16.08
2023-05-24T17:12:54.703Z,16.45
2023-05-24T17:15:21.954Z,16.55
2023-05-24T17:17:49.248Z,16.79
2023-05-24T17:20:16.633Z,16.56
2023-05-24T17:22:43.894Z,16.49
2023-05-24T17:25:12.518Z,16.42
2023-05-24T17:27:39.745Z,16.26
2023-05-24T17:30:08.094Z,15.96
2023-05-24T17:32:35.367Z,15.86
2023-05-24T17:35:02.804Z,15.59
2023-05-24T17:37:30.005Z,15.51
2023-05-24T17:39:57.225Z,15.21
2023-05-24T17:42:25.815Z,15.01
2023-05-24T17:44:53.052Z,14.87
2023-05-24T17:47:20.304Z,14.68
2023-05-24T17:49:47.528Z,14.53
2023-05-24T17:52:14.777Z,14.56
2023-05-24T17:54:42.096Z,14.35
2023-05-24T17:57:09.363Z,14.35
2023-05-24T17:59:38.040Z,14.02
2023-05-24T18:02:05.250Z,13.89
2023-05-24T18:04:32.568Z,13.75
2023-05-24T18:06:59.929Z,13.67
2023-05-24T18:09:27.163Z,13.65
2023-05-24T18:11:54.383Z,13.58
2023-05-24T18:14:21.625Z,13.42
2023-05-24T18:16:50.289Z,13.37
2023-05-24T18:19:17.730Z,13.33
2023-05-24T18:21:44.919Z,13.31
2023-05-24T18:24:12.140Z,13.21
2023-05-24T18:26:39.366Z,13.22
2023-05-24T18:29:06.583Z,13.11
2023-05-24T18:31:33.816Z,13.00
2023-05-24T18:34:02.644Z,12.96
2023-05-24T18:36:30.153Z,12.81
2023-05-24T18:38:57.351Z,12.75
2023-05-24T18:41:24.681Z,12.62
2023-05-24T18:43:51.911Z,12.66
2023-05-24T18:46:19.206Z,12.60
2023-05-24T18:48:46.584Z,12.57
2023-05-24T18:51:15.122Z,12.49
2023-05-24T18:53:42.346Z,12.46
2023-05-24T18:56:09.630Z,12.31
2023-05-24T18:58:36.875Z,12.20
2023-05-24T19:01:04.137Z,12.09
2023-05-24T19:03:31.411Z,12.08
2023-05-24T19:05:58.625Z,11.96
2023-05-24T19:08:27.159Z,11.87
2023-05-24T19:10:54.372Z,11.77
2023-05-24T19:13:21.588Z,11.63
2023-05-24T19:15:48.854Z,11.56
2023-05-24T19:18:16.033Z,11.42
2023-05-24T19:20:43.301Z,11.41
2023-05-24T19:23:10.529Z,11.35
2023-05-24T19:25:41.412Z,11.28
2023-05-24T19:28:10.579Z,11.14
2023-05-24T19:30:37.808Z,11.06
2023-05-24T19:33:05.170Z,11.01
2023-05-24T19:35:32.452Z,10.88
2023-05-24T19:37:59.626Z,10.89
2023-05-24T19:40:26.852Z,10.79
2023-05-24T19:42:55.442Z,10.73
2023-05-24T19:45:22.759Z,10.64
2023-05-24T19:47:49.989Z,10.54
2023-05-24T19:50:18.183Z,10.58
2023-05-24T19:52:45.453Z,10.57
2023-05-24T19:55:12.665Z,10.51
2023-05-24T19:57:39.890Z,10.40
2023-05-24T20:00:09.280Z,10.22
2023-05-24T20:02:39.361Z,10.07
2023-05-24T20:05:07.381Z,9.94
2023-05-24T20:07:34.571Z,9.83
2023-05-24T20:10:01.861Z,9.71
2023-05-24T20:12:29.084Z,9.61
2023-05-24T20:14:56.282Z,9.57
2023-05-24T20:17:25.097Z,9.48
2023-05-24T20:19:52.387Z,9.41
2023-05-24T20:22:19.673Z,9.32
2023-05-24T20:24:46.929Z,9.19
2023-05-24T20:27:14.134Z,9.08
2023-05-24T20:29:42.285Z,9.03
2023-05-24T20:32:09.496Z,8.95
2023-05-24T20:34:38.113Z,8.92
2023-05-24T20:37:05.815Z,8.87
2023-05-24T20:39:33.052Z,8.81
2023-05-24T20:42:00.286Z,8.79
2023-05-24T20:44:27.475Z,8.69
2023-05-24T20:46:54.698Z,8.66
2023-05-24T20:49:22.069Z,8.58
2023-05-24T20:51:50.645Z,8.55
2023-05-24T20:54:17.849Z,8.53
2023-05-24T20:56:45.032Z,8.43
2023-05-24T20:59:12.249Z,8.30
2023-05-24T21:01:39.432Z,8.24
2023-05-24T21:04:06.790Z,8.17
2023-05-24T21:06:34.354Z,8.09
2023-05-24T21:09:03.062Z,8.05
2023-05-24T21:11:30.518Z,7.99
2023-05-24T21:13:57.755Z,7.93
2023-05-24T21:16:25.291Z,7.81
2023-05-24T21:18:52.552Z,7.79
2023-05-24T21:21:19.781Z,7.72
2023-05-24T21:23:46.983Z,7.67
2023-05-24T21:26:15.700Z,7.63
2023-05-24T21:28:42.997Z,7.61
2023-05-24T21:31:10.291Z,7.54
2023-05-24T21:33:37.582Z,7.52
2023-05-24T21:36:04.960Z,7.45
2023-05-24T21:38:32.230Z,7.39
2023-05-24T21:40:59.464Z,7.34
2023-05-24T21:43:28.052Z,7.34
2023-05-24T21:45:55.290Z,7.28
2023-05-24T21:48:22.617Z,7.26
2023-05-24T21:50:49.834Z,7.25
2023-05-24T21:53:17.039Z,7.21
2023-05-24T21:55:44.414Z,7.17
2023-05-24T21:58:11.784Z,7.08
2023-05-24T22:00:40.330Z,7.00
2023-05-24T22:03:07.740Z,7.03
2023-05-24T22:05:35.058Z,7.04
2023-05-24T22:08:02.353Z,7.07
2023-05-24T22:10:29.716Z,7.09
2023-05-24T22:12:57.024Z,6.99
2023-05-24T22:15:24.304Z,6.96
2023-05-24T22:17:52.853Z,6.92
2023-05-24T22:20:20.144Z,6.83
2023-05-24T22:22:47.386Z,6.81
2023-05-24T22:25:15.061Z,6.78
2023-05-24T22:27:42.245Z,6.74
2023-05-24T22:30:10.388Z,6.67
2023-05-24T22:32:37.629Z,6.58
2023-05-24T22:35:06.990Z,6.55
2023-05-24T22:37:34.982Z,6.50
2023-05-24T22:40:02.561Z,6.53
2023-05-24T22:42:30.070Z,6.52
2023-05-24T22:44:57.493Z,6.48
2023-05-24T22:47:24.757Z,6.46
2023-05-24T22:49:52.456Z,6.40
2023-05-24T22:52:21.308Z,6.38
2023-05-24T22:54:48.525Z,6.35
2023-05-24T22:57:15.807Z,6.33
2023-05-24T22:59:43.002Z,6.29
2023-05-24T23:02:10.250Z,6.24
2023-05-24T23:04:37.474Z,6.19
2023-05-24T23:07:04.786Z,6.21
2023-05-24T23:09:33.359Z,6.24
2023-05-24T23:12:00.928Z,6.24
2023-05-24T23:14:28.231Z,6.23
2023-05-24T23:16:55.552Z,6.19
2023-05-24T23:19:22.762Z,6.20
2023-05-24T23:21:49.979Z,6.12
2023-05-24T23:24:17.229Z,6.07
2023-05-24T23:26:45.776Z,6.01
2023-05-24T23:29:13.127Z,5.96
2023-05-24T23:31:40.454Z,5.94
2023-05-24T23:34:07.724Z,5.93
2023-05-24T23:36:34.920Z,5.88
2023-05-24T23:39:02.158Z,5.85
2023-05-24T23:41:29.327Z,5.82
2023-05-24T23:43:57.897Z,5.78
2023-05-24T23:46:25.266Z,5.71
2023-05-24T23:48:52.498Z,5.69
2023-05-24T23:51:19.707Z,5.57
2023-05-24T23:53:46.903Z,5.58
2023-05-24T23:56:14.189Z,5.50
2023-05-24T23:58:41.400Z,5.47
